Flight Track Log - Related Links

Times and Time Zones

All times are in EDT time to prevent confusion due to time zone crossing. See the JZA7940 flight status page for this flight to view local times or setup timezone preferences in your user account.

Time Position Orientation Groundspeed Altitude Reporting Facility
EDT Latitude Longitude Course Direction KTS MPH feet Rate Location/Type
Sun 10:14:49 PM 42.9500 -87.8833 97° East 158 182 1,700  Level KMKE
Sun 10:15:12 PM 42.9478 -87.8569 97° East 158 182 2,400 2,214 Climbing Chicago Center
Sun 10:16:13 PM 42.9492 -87.7825 89° East 198 228 4,800 2,634 Climbing Chicago Center
Sun 10:17:15 PM 42.9561 -87.6836 84° East 255 293 7,800 2,878 Climbing Chicago Center
Sun 10:18:16 PM 42.9619 -87.5811 86° East 270 311 10,700 2,164 Climbing Chicago Center
Sun 10:19:17 PM 42.9678 -87.4617 86° East 316 364 12,200 1,561 Climbing Chicago Center
Sun 10:20:19 PM 42.9767 -87.3075 85° East 355 409 13,900 1,805 Climbing Chicago Center
Sun 10:21:20 PM 42.9872 -87.1619 84° East 383 441 15,900 2,164 Climbing Chicago Center
Sun 10:22:21 PM 42.9981 -87.0233 84° East 370 426 18,300 2,146 Climbing Chicago Center
Sun 10:23:23 PM 43.0094 -86.8869 83° East 364 419 20,300 1,951 Climbing Chicago Center
Sun 10:24:24 PM 43.0194 -86.7519 84° East 359 413 22,300 1,918 Climbing Chicago Center
Sun 10:25:25 PM 43.0303 -86.6175 84° East 356 410 24,200 1,623 Climbing Chicago Center
Sun 10:26:26 PM 43.0406 -86.4817 84° East 360 414 25,600 1,171 Climbing Chicago Center
Sun 10:27:28 PM 43.0503 -86.3422 85° East 367 422 26,600 976 Climbing Chicago Center
Sun 10:28:29 PM 43.0611 -86.1947 84° East 386 444 27,600 1,033 Climbing Chicago Center
Sun 10:29:30 PM 43.0719 -86.0389 85° East 395 455 28,700 1,033 Climbing Chicago Center
Sun 10:30:31 PM 43.0817 -85.8869 85° East 400 460 29,700 976 Climbing Chicago Center
Sun 10:31:33 PM 43.0933 -85.7222 84° East 410 472 30,700 976 Climbing Chicago Center
Sun 10:32:34 PM 43.1036 -85.5706 85° East 405 466 31,700 984 Climbing Chicago Center
Sun 10:33:35 PM 43.1131 -85.4175 84° East 403 464 32,700 639 Climbing Chicago Center
Sun 10:34:36 PM 43.1256 -85.2336 85° East 404 465 33,000 186 Climbing Chicago Center
Sun 10:35:12 PM 43.1292 -85.1353 87° East 409 471 33,000  Level Cleveland Center
Sun 10:36:12 PM 43.1417 -84.9711 84° East 416 479 33,000  Level Cleveland Center
Sun 10:37:12 PM 43.1522 -84.8039 85° East 427 491 33,000  Level Cleveland Center
Sun 10:38:12 PM 43.1625 -84.6339 85° East 438 504 33,000  Level Cleveland Center
Sun 10:39:12 PM 43.1786 -84.4639 83° East 443 510 33,000  Level Cleveland Center
Sun 10:40:12 PM 43.1925 -84.2911 84° East 443 510 33,000  Level Cleveland Center
Sun 10:41:12 PM 43.2064 -84.1153 84° East 448 516 33,000  Level Cleveland Center
Sun 10:42:12 PM 43.2200 -83.9450 84° East 454 522 33,000  Level Cleveland Center
Sun 10:43:12 PM 43.2353 -83.7664 83° East 460 529 33,000  Level Cleveland Center
Sun 10:44:12 PM 43.2506 -83.5903 83° East 460 529 33,000  Level Cleveland Center
Sun 10:45:12 PM 43.2656 -83.4086 83° East 460 529 33,000  Level Cleveland Center
Sun 10:46:12 PM 43.2781 -83.2353 84° East 460 529 33,000 -100 Level Cleveland Center
Sun 10:47:12 PM 43.2903 -83.0561 85° East 465 535 32,800 -650 Descending Cleveland Center
Sun 10:48:12 PM 43.3044 -82.8739 84° East 465 535 31,700 -1,000 Descending Cleveland Center
Sun 10:49:12 PM 43.3161 -82.7003 85° East 465 535 30,800 -1,000 Descending Cleveland Center
Sun 10:50:12 PM 43.3275 -82.5239 85° East 465 535 29,700 -900 Descending Cleveland Center
Sun 10:51:12 PM 43.3428 -82.3531 83° East 459 528 29,000 -316 Descending Cleveland Center
Sun 10:52:25 PM 43.3333 -82.1333 93° East 460 529 29,000  Level Toronto Center
Sun 10:53:25 PM 43.3500 -81.9500 83° East 460 529 29,000  Level Toronto Center
Sun 10:54:25 PM 43.3667 -81.7667 83° East 460 529 29,000 -400 Level Toronto Center
Sun 10:55:25 PM 43.3833 -81.5833 83° East 470 541 28,200 -1,900 Descending Toronto Center
Sun 10:56:25 PM 43.3833 -81.4167 90° East 460 529 25,200 -3,050 Descending Toronto Center
Sun 10:57:25 PM 43.4000 -81.2333 83° East 460 529 22,100 -3,000 Descending Toronto Center
Sun 10:58:25 PM 43.4000 -81.0833 90° East 430 495 19,200 -2,950 Descending Toronto Center
Sun 10:59:25 PM 43.4167 -80.9167 82° East 420 483 16,200 -2,950 Descending Toronto Center
Sun 11:00:25 PM 43.4333 -80.7833 80° East 400 460 13,300 -2,650 Descending Toronto Center
Sun 11:01:25 PM 43.4333 -80.6167 90° East 380 437 10,900 -1,650 Descending Toronto Center
Sun 11:02:25 PM 43.4500 -80.5000 79° East 330 380 10,000 -900 Descending Toronto Center
Sun 11:03:25 PM 43.4500 -80.4167 90° East 280 322 9,100 -950 Descending Toronto Center
Sun 11:04:25 PM 43.4667 -80.3000 79° East 260 299 8,100 -800 Descending Toronto Center
Sun 11:05:25 PM 43.4667 -80.2333 90° East 230 265 7,500 -550 Descending Toronto Center
Sun 11:06:25 PM 43.4833 -80.1333 77° East 210 242 7,000 -500 Descending Toronto Center
Sun 11:07:25 PM 43.4833 -80.0667 90° East 210 242 6,500 -750 Descending Toronto Center
Sun 11:08:25 PM 43.4500 -80.0000 125° Southeast 200 230 5,500 -750 Descending Toronto Center
Sun 11:09:25 PM 43.4667 -79.9333 71° East 200 230 5,000 -250 Descending Toronto Center
Sun 11:10:25 PM 43.5000 -79.8667 55° Northeast 200 230 5,000 -500 Level Toronto Center
Sun 11:11:25 PM 43.5500 -79.8167 36° Northeast 190 219 4,000 -950 Descending Toronto Center
Sun 11:12:25 PM 43.5833 -79.7667 47° Northeast 170 196 3,100 -850 Descending Toronto Center
Sun 11:13:25 PM 43.6000 -79.7333 55° Northeast 170 196 2,300 -850 Descending Toronto Center
Sun 11:14:25 PM 43.6333 -79.6833 47° Northeast 160 184 1,400 -800 Descending Toronto Center
Sun 11:15:25 PM 43.6667 -79.6500 36° Northeast 130 150 700 -400 Descending Toronto Center
Sun 11:16:25 PM 43.6833 -79.6333 36° Northeast 90 104 600 -100 Descending Toronto Center

Login

Don't have an account? Register now (free) for customized features, flight alerts, and more!